ADDS TAF Data INFO
IDs: Format: Raw Decoded Include METARs

Data at: 0153 UTC 22 Jun 2018

KJAX 220056Z 20006KT 10SM FEW050 SCT150 BKN250 27/24 A2988 RMK AO2 SLP118 T02670239

KJAX 212344Z 2200/2224 21005KT P6SM SCT040 SCT080 BKN250
  FM221400 26006KT P6SM SCT040 BKN250


KCRG 220053Z 21006KT 10SM CLR 26/26 A2989 RMK AO2 SLP121 T02610256

KCRG 212344Z 2200/2224 22005KT P6SM SCT040 SCT070 BKN250
  FM221400 25007KT P6SM SCT040 BKN250


KVQQ 220150Z 19004KT 10SM SCT110 26/ A2992

KVQQ 212344Z 2200/2224 20004KT P6SM SCT040 SCT080 BKN250
  FM221400 26006KT P6SM SCT040 BKN250


KGNV 220053Z 21004KT 10SM CLR 28/24 A2993 RMK AO2 SLP132 T02830239

KGNV 212344Z 2200/2224 26005KT P6SM SCT030 SCT070 BKN250
  FM221400 27007KT P6SM SCT030 BKN250


KSGJ 220056Z AUTO 23006KT 10SM CLR 25/24 A2991 RMK AO2 SLP128 T02500239

KSGJ 212344Z 2200/2224 22006KT P6SM SCT030 SCT120 BKN250
  FM221400 27007KT P6SM SCT030 BKN250


KSSI 220053Z AUTO 23008KT 10SM SCT065 30/22 A2985 RMK AO2 SLP110 T03000222

KSSI 212344Z 2200/2224 22006KT P6SM SCT040 SCT090 BKN250
  FM221400 25007KT P6SM SCT040 BKN250